Terminal Aerodrome Forecast
Issued by NWS Glasgow, MT

Home | Current Version | Previous Version | Text Only | Print | Product List | Glossary On
Versions: 1 2 3 4 5 6 7 8 9 10 11 12 13 14 15
000
FTUS45 KGGW 210520
TAFGGW
TAF
KGGW 210520Z 2106/2206 09013KT P6SM FEW110
     FM210700 10008KT P6SM FEW110
     FM210800 VRB04KT P6SM FEW110
     FM211300 30009KT P6SM SCT170
     FM211500 30013KT P6SM FEW160=

USA.gov is the U.S. government's official web portal to all federal, state and local government web resources and services.